createdAt,value
2022-10-21T00:01:43.397Z,11.46
2022-10-21T00:04:11.704Z,11.55
2022-10-21T00:06:39.918Z,11.59
2022-10-21T00:09:10.197Z,11.67
2022-10-21T00:11:38.597Z,11.75
2022-10-21T00:14:07.125Z,11.82
2022-10-21T00:16:35.408Z,11.86
2022-10-21T00:19:03.680Z,11.89
2022-10-21T00:21:31.982Z,11.86
2022-10-21T00:24:00.297Z,11.83
2022-10-21T00:26:32.754Z,11.93
2022-10-21T00:29:03.121Z,11.90
2022-10-21T00:31:33.363Z,11.86
2022-10-21T00:34:01.676Z,11.85
2022-10-21T00:36:31.329Z,11.81
2022-10-21T00:38:59.635Z,11.79
2022-10-21T00:41:29.779Z,11.75
2022-10-21T00:44:00.931Z,11.75
2022-10-21T00:46:42.161Z,11.72
2022-10-21T00:49:18.116Z,11.64
2022-10-21T00:51:48.781Z,11.62
2022-10-21T00:54:19.570Z,11.55
2022-10-21T00:59:21.055Z,11.47
2022-10-21T01:01:50.492Z,11.47
2022-10-21T01:04:18.762Z,11.47
2022-10-21T01:06:48.793Z,11.51
2022-10-21T01:09:17.754Z,11.56
2022-10-21T01:11:49.847Z,11.56
2022-10-21T01:14:46.823Z,11.58
2022-10-21T01:17:44.882Z,11.62
2022-10-21T01:20:35.452Z,11.62
2022-10-21T01:23:43.125Z,11.65
2022-10-21T01:26:30.820Z,11.70
2022-10-21T01:29:22.832Z,11.74
2022-10-21T01:32:02.687Z,11.82
2022-10-21T01:34:39.046Z,11.88
2022-10-21T01:37:15.431Z,11.79
2022-10-21T01:39:50.321Z,11.80
2022-10-21T01:42:21.915Z,11.82
2022-10-21T01:44:54.840Z,11.84
2022-10-21T01:47:32.832Z,11.85
2022-10-21T01:50:06.525Z,11.86
2022-10-21T01:52:34.988Z,11.90
2022-10-21T01:55:07.219Z,11.88
2022-10-21T01:57:40.530Z,11.84
2022-10-21T02:00:11.058Z,11.79
2022-10-21T02:02:47.408Z,11.76
2022-10-21T02:05:19.800Z,11.70
2022-10-21T02:07:49.121Z,11.68
2022-10-21T02:10:18.683Z,11.68
2022-10-21T02:12:50.804Z,11.66
2022-10-21T02:15:20.970Z,11.66
2022-10-21T02:17:55.544Z,11.68
2022-10-21T02:20:29.121Z,11.74
2022-10-21T02:22:57.576Z,11.76
2022-10-21T02:25:30.478Z,11.76
2022-10-21T02:27:59.144Z,11.68
2022-10-21T02:30:28.664Z,11.74
2022-10-21T02:33:05.539Z,11.77
2022-10-21T02:35:39.246Z,11.79
2022-10-21T02:38:13.667Z,11.94
2022-10-21T02:40:46.163Z,12.08
2022-10-21T02:43:21.324Z,12.19
2022-10-21T02:45:50.418Z,12.23
2022-10-21T02:48:20.614Z,12.28
2022-10-21T02:50:48.883Z,12.28
2022-10-21T02:53:17.104Z,12.32
2022-10-21T02:55:45.313Z,12.39
2022-10-21T02:58:13.545Z,12.31
2022-10-21T03:00:41.839Z,12.42
2022-10-21T03:03:10.143Z,12.39
2022-10-21T03:05:40.284Z,12.40
2022-10-21T03:08:08.593Z,12.40
2022-10-21T03:10:36.840Z,12.43
2022-10-21T03:13:05.337Z,12.44
2022-10-21T03:15:33.698Z,12.51
2022-10-21T03:18:01.969Z,12.57
2022-10-21T03:20:30.277Z,12.58
2022-10-21T03:23:00.454Z,12.60
2022-10-21T03:25:32.945Z,12.60
2022-10-21T03:28:03.491Z,12.56
2022-10-21T03:30:31.736Z,12.60
2022-10-21T03:33:00.046Z,12.59
2022-10-21T03:35:28.304Z,12.56
2022-10-21T03:40:29.430Z,12.56
2022-10-21T03:42:58.059Z,12.61
2022-10-21T03:45:26.763Z,12.60
2022-10-21T03:47:55.200Z,12.65
2022-10-21T03:50:26.608Z,12.71
2022-10-21T03:52:55.592Z,12.72
2022-10-21T03:55:24.716Z,12.73
2022-10-21T03:57:55.794Z,12.82
2022-10-21T04:00:27.059Z,12.88
2022-10-21T04:02:57.781Z,12.90
2022-10-21T04:05:26.146Z,12.91
2022-10-21T04:07:54.377Z,12.94
2022-10-21T04:10:22.725Z,12.96
2022-10-21T04:12:51.077Z,13.00
2022-10-21T04:15:21.336Z,13.04
2022-10-21T04:17:49.653Z,13.07
2022-10-21T04:20:17.997Z,13.08
2022-10-21T04:22:46.244Z,13.00
2022-10-21T04:25:14.588Z,12.98
2022-10-21T04:27:42.913Z,12.91
2022-10-21T04:30:11.983Z,12.87
2022-10-21T04:32:42.629Z,12.82
2022-10-21T04:35:10.908Z,12.83
2022-10-21T04:37:39.558Z,12.88
2022-10-21T04:40:09.651Z,12.88
2022-10-21T04:42:37.875Z,12.83
2022-10-21T04:45:09.739Z,12.75
2022-10-21T04:47:38.249Z,12.77
2022-10-21T04:50:09.649Z,12.72
2022-10-21T04:52:38.290Z,12.67
2022-10-21T04:55:07.914Z,12.75
2022-10-21T04:57:36.291Z,12.73
2022-10-21T05:00:06.253Z,12.71
2022-10-21T05:02:34.789Z,12.66
2022-10-21T05:05:03.084Z,12.59
2022-10-21T05:07:33.284Z,12.59
2022-10-21T05:10:01.517Z,12.55
2022-10-21T05:12:29.876Z,12.55
2022-10-21T05:14:59.925Z,12.58
2022-10-21T05:17:28.247Z,12.53
2022-10-21T05:19:56.568Z,12.51
2022-10-21T05:22:24.783Z,12.50
2022-10-21T05:24:55.039Z,12.59
2022-10-21T05:27:23.387Z,12.56
2022-10-21T05:29:51.718Z,12.59
2022-10-21T05:32:19.958Z,12.54
2022-10-21T05:34:48.149Z,12.54
2022-10-21T05:37:16.370Z,12.51
2022-10-21T05:39:44.773Z,12.52
2022-10-21T05:42:14.951Z,12.50
2022-10-21T05:44:43.326Z,12.48
2022-10-21T05:47:11.660Z,12.47
2022-10-21T05:49:39.901Z,12.57
2022-10-21T05:52:08.556Z,12.59
2022-10-21T05:54:36.813Z,12.61
2022-10-21T05:57:05.230Z,12.60
2022-10-21T05:59:35.485Z,12.58
2022-10-21T06:02:03.966Z,12.61
2022-10-21T06:04:36.417Z,12.57
2022-10-21T06:07:07.467Z,12.57
2022-10-21T06:09:37.124Z,12.61
2022-10-21T06:12:06.142Z,12.60
2022-10-21T06:14:37.110Z,12.64
2022-10-21T06:17:05.810Z,12.63
2022-10-21T06:19:34.103Z,12.67
2022-10-21T06:22:02.442Z,12.69
2022-10-21T06:24:30.661Z,12.65
2022-10-21T06:26:58.881Z,12.74
2022-10-21T06:29:27.215Z,12.78
2022-10-21T06:31:57.480Z,12.81
2022-10-21T06:34:25.709Z,12.81
2022-10-21T06:36:54.061Z,12.79
2022-10-21T06:39:22.336Z,12.86
2022-10-21T06:41:51.226Z,12.89
2022-10-21T06:44:19.644Z,12.97
2022-10-21T06:46:48.045Z,13.08
2022-10-21T06:49:18.224Z,13.16
2022-10-21T06:51:46.573Z,13.11
2022-10-21T06:54:14.812Z,13.26
2022-10-21T06:56:43.065Z,13.29
2022-10-21T06:59:11.824Z,13.36
2022-10-21T07:01:59.285Z,13.41
2022-10-21T07:04:30.833Z,13.35
2022-10-21T07:06:59.568Z,13.42
2022-10-21T07:09:27.966Z,13.42
2022-10-21T07:11:56.223Z,13.44
2022-10-21T07:14:24.811Z,13.57
2022-10-21T07:16:53.371Z,13.62
2022-10-21T07:19:21.791Z,13.69
2022-10-21T07:21:51.927Z,13.80
2022-10-21T07:24:22.535Z,13.84
2022-10-21T07:26:51.979Z,13.86
2022-10-21T07:29:20.455Z,13.96
2022-10-21T07:31:48.669Z,14.07
2022-10-21T07:34:17.445Z,14.21
2022-10-21T07:36:52.249Z,14.25
2022-10-21T07:39:26.328Z,14.26
2022-10-21T07:41:56.666Z,14.29
2022-10-21T07:44:26.577Z,14.28
2022-10-21T07:46:55.764Z,14.37
2022-10-21T07:49:25.744Z,14.43
2022-10-21T07:51:53.977Z,14.66
2022-10-21T07:54:24.149Z,14.94
2022-10-21T07:56:53.568Z,15.64
2022-10-21T07:59:23.770Z,16.23
2022-10-21T08:01:53.539Z,16.42
2022-10-21T08:04:24.385Z,16.50
2022-10-21T08:06:52.645Z,16.55
2022-10-21T08:09:21.061Z,17.29
2022-10-21T08:11:51.267Z,17.85
2022-10-21T08:14:19.706Z,17.80
2022-10-21T08:16:48.284Z,18.01
2022-10-21T08:19:21.073Z,17.99
2022-10-21T08:21:49.411Z,17.95
2022-10-21T08:24:17.785Z,18.02
2022-10-21T08:26:46.131Z,18.03
2022-10-21T08:29:16.312Z,17.97
2022-10-21T08:31:44.607Z,17.82
2022-10-21T08:34:13.471Z,17.74
2022-10-21T08:36:42.003Z,17.45
2022-10-21T08:39:10.604Z,17.47
2022-10-21T08:42:06.468Z,17.35
2022-10-21T08:44:45.195Z,17.21
2022-10-21T08:47:20.855Z,17.17
2022-10-21T08:49:57.448Z,17.15
2022-10-21T08:52:29.212Z,17.21
2022-10-21T08:55:01.397Z,17.49
2022-10-21T08:57:30.614Z,18.35
2022-10-21T09:00:00.867Z,18.94
2022-10-21T09:02:37.441Z,19.49
2022-10-21T09:08:25.748Z,20.65
2022-10-21T09:11:02.881Z,21.14
2022-10-21T09:13:46.286Z,21.31
2022-10-21T09:16:25.459Z,21.51
2022-10-21T09:19:04.471Z,21.55
2022-10-21T09:21:49.050Z,21.74
2022-10-21T09:24:25.970Z,21.63
2022-10-21T09:26:55.312Z,22.25
2022-10-21T09:29:30.808Z,22.03
2022-10-21T09:32:13.457Z,21.92
2022-10-21T09:34:48.893Z,21.13
2022-10-21T09:37:25.848Z,21.06
2022-10-21T09:40:03.017Z,20.82
2022-10-21T09:42:46.891Z,20.50
2022-10-21T09:45:23.291Z,20.26
2022-10-21T09:47:59.145Z,20.23
2022-10-21T09:50:28.636Z,20.13
2022-10-21T09:53:04.079Z,19.85
2022-10-21T09:55:33.565Z,20.03
2022-10-21T09:58:03.949Z,20.18
2022-10-21T10:00:45.525Z,20.31
2022-10-21T10:03:31.436Z,20.55
2022-10-21T10:06:00.201Z,20.89
2022-10-21T10:08:36.747Z,21.49
2022-10-21T10:11:18.532Z,21.91
2022-10-21T10:13:48.324Z,22.10
2022-10-21T10:16:23.832Z,21.12
2022-10-21T10:18:55.658Z,20.17
2022-10-21T10:21:24.305Z,19.86
2022-10-21T10:23:54.752Z,19.29
2022-10-21T10:26:30.531Z,19.08
2022-10-21T10:29:04.161Z,18.85
2022-10-21T10:31:35.484Z,18.82
2022-10-21T10:34:09.465Z,18.80
2022-10-21T10:36:39.868Z,18.62
2022-10-21T10:39:10.559Z,18.70
2022-10-21T10:41:41.342Z,18.74
2022-10-21T10:44:13.662Z,18.68
2022-10-21T10:46:42.047Z,18.45
2022-10-21T10:49:22.939Z,18.50
2022-10-21T10:52:06.865Z,18.43
2022-10-21T10:54:35.236Z,18.32
2022-10-21T10:57:06.901Z,18.27
2022-10-21T10:59:41.795Z,18.27
2022-10-21T11:02:27.554Z,18.07
2022-10-21T11:05:18.377Z,17.93
2022-10-21T11:07:50.313Z,17.82
2022-10-21T11:10:33.007Z,17.63
2022-10-21T11:13:02.445Z,17.56
2022-10-21T11:15:45.567Z,17.67
2022-10-21T11:18:24.574Z,17.64
2022-10-21T11:21:07.570Z,17.65
2022-10-21T11:23:57.663Z,17.57
2022-10-21T11:26:37.924Z,17.45
2022-10-21T11:29:18.779Z,17.52
2022-10-21T11:32:11.101Z,17.52
2022-10-21T11:34:51.074Z,17.42
2022-10-21T11:37:30.233Z,17.40
2022-10-21T11:40:04.631Z,17.38
2022-10-21T11:42:40.569Z,17.40
2022-10-21T11:45:30.126Z,17.42
2022-10-21T11:48:08.886Z,17.37
2022-10-21T11:50:45.530Z,17.37
2022-10-21T11:53:30.669Z,17.36
2022-10-21T11:56:08.819Z,17.40
2022-10-21T11:58:47.863Z,17.42
2022-10-21T12:01:30.465Z,17.34
2022-10-21T12:04:16.768Z,17.31
2022-10-21T12:06:57.096Z,17.35
2022-10-21T12:09:34.451Z,17.37
2022-10-21T12:12:08.101Z,17.39
2022-10-21T12:14:41.841Z,17.39
2022-10-21T12:17:15.741Z,17.45
2022-10-21T12:19:47.627Z,17.40
2022-10-21T12:22:16.310Z,17.48
2022-10-21T12:24:53.393Z,17.46
2022-10-21T12:27:28.393Z,17.34
2022-10-21T12:30:07.901Z,17.40
2022-10-21T12:32:46.184Z,17.35
2022-10-21T12:35:16.136Z,17.44
2022-10-21T12:38:07.403Z,17.43
2022-10-21T12:40:40.399Z,17.37
2022-10-21T12:43:23.183Z,17.52
2022-10-21T12:46:06.071Z,17.41
2022-10-21T12:48:36.848Z,17.42
2022-10-21T12:51:09.046Z,17.41
2022-10-21T12:53:43.619Z,17.28
2022-10-21T12:56:27.674Z,17.26
2022-10-21T12:59:01.184Z,17.22
2022-10-21T13:01:43.237Z,17.15
2022-10-21T13:04:41.569Z,17.23
2022-10-21T13:07:48.081Z,17.21
2022-10-21T13:10:27.919Z,17.02
2022-10-21T13:13:26.253Z,16.69
2022-10-21T13:15:56.616Z,16.42
2022-10-21T13:18:54.726Z,16.28
2022-10-21T13:21:31.733Z,16.16
2022-10-21T13:24:24.049Z,16.11
2022-10-21T13:26:57.173Z,16.04
2022-10-21T13:29:33.146Z,16.04
2022-10-21T13:32:29.701Z,15.99
2022-10-21T13:35:11.811Z,15.94
2022-10-21T13:37:43.445Z,15.96
2022-10-21T13:40:17.683Z,15.96
2022-10-21T13:42:50.312Z,15.97
2022-10-21T13:45:26.242Z,15.94
2022-10-21T13:48:05.301Z,15.99
2022-10-21T13:50:38.134Z,15.86
2022-10-21T13:53:22.757Z,15.72
2022-10-21T13:55:59.172Z,15.62
2022-10-21T13:58:29.159Z,15.56
2022-10-21T14:00:58.847Z,15.52
2022-10-21T14:03:29.391Z,15.46
2022-10-21T14:06:00.463Z,15.43
2022-10-21T14:08:32.951Z,15.38
2022-10-21T14:11:04.476Z,15.37
2022-10-21T14:13:37.260Z,15.32
2022-10-21T14:16:07.698Z,15.28
2022-10-21T14:18:42.608Z,15.28
2022-10-21T14:21:17.516Z,15.21
2022-10-21T14:23:47.029Z,15.21
2022-10-21T14:26:15.621Z,15.19
2022-10-21T14:28:45.638Z,15.17
2022-10-21T14:31:15.485Z,15.12
2022-10-21T14:33:49.129Z,15.13
2022-10-21T14:36:20.306Z,15.09
2022-10-21T14:38:58.654Z,15.07
2022-10-21T14:41:29.630Z,15.07
2022-10-21T14:44:00.496Z,15.09
2022-10-21T14:46:29.097Z,15.13
2022-10-21T14:49:02.816Z,15.09
2022-10-21T14:51:38.248Z,15.12
2022-10-21T14:54:08.523Z,15.03
2022-10-21T14:56:39.804Z,15.06
2022-10-21T14:59:20.924Z,15.09
2022-10-21T15:01:49.270Z,15.03
2022-10-21T15:04:44.632Z,15.03
2022-10-21T15:07:30.337Z,15.00
2022-10-21T15:10:16.687Z,15.00
2022-10-21T15:12:49.824Z,14.99
2022-10-21T15:15:49.773Z,14.98
2022-10-21T15:18:24.806Z,14.95
2022-10-21T15:20:58.248Z,14.94
2022-10-21T15:23:30.827Z,14.92
2022-10-21T15:26:03.049Z,14.96
2022-10-21T15:28:33.334Z,14.97
2022-10-21T15:31:02.211Z,14.98
2022-10-21T15:33:31.007Z,14.95
2022-10-21T15:36:07.915Z,14.95
2022-10-21T15:38:37.755Z,14.95
2022-10-21T15:41:06.487Z,14.92
2022-10-21T15:43:34.802Z,14.92
2022-10-21T15:46:03.042Z,14.93
2022-10-21T15:48:31.241Z,14.84
2022-10-21T15:50:59.477Z,14.79
2022-10-21T15:53:29.640Z,14.81
2022-10-21T15:55:57.830Z,14.87
2022-10-21T15:58:26.068Z,14.86
2022-10-21T16:00:54.453Z,14.88
2022-10-21T16:03:22.830Z,14.91
2022-10-21T16:05:51.420Z,14.86
2022-10-21T16:08:19.741Z,14.87
2022-10-21T16:10:49.962Z,14.92
2022-10-21T16:13:20.070Z,14.96
2022-10-21T16:16:44.581Z,14.93
2022-10-21T16:19:14.090Z,14.90
2022-10-21T16:21:45.764Z,14.90
2022-10-21T16:24:22.796Z,14.89
2022-10-21T16:26:55.412Z,14.87
2022-10-21T16:29:27.354Z,14.85
2022-10-21T16:31:57.084Z,14.80
2022-10-21T16:34:26.845Z,14.76
2022-10-21T16:36:56.596Z,14.79
2022-10-21T16:39:27.764Z,14.84
2022-10-21T16:42:00.614Z,14.82
2022-10-21T16:44:31.786Z,14.84
2022-10-21T16:47:05.822Z,14.83
2022-10-21T16:49:36.639Z,14.82
2022-10-21T16:52:06.744Z,14.81
2022-10-21T16:54:36.911Z,14.84
2022-10-21T16:57:10.269Z,14.91
2022-10-21T16:59:40.325Z,14.86
2022-10-21T17:02:21.812Z,14.90
2022-10-21T17:04:52.123Z,14.89
2022-10-21T17:07:22.323Z,14.89
2022-10-21T17:09:52.634Z,14.89
2022-10-21T17:12:26.024Z,14.89
2022-10-21T17:14:56.255Z,14.87
2022-10-21T17:17:25.869Z,14.85
2022-10-21T17:19:57.007Z,14.82
2022-10-21T17:22:26.812Z,14.86
2022-10-21T17:24:56.755Z,14.85
2022-10-21T17:27:29.685Z,14.88
2022-10-21T17:29:59.995Z,14.86
2022-10-21T17:32:30.212Z,14.89
2022-10-21T17:35:00.145Z,14.90
2022-10-21T17:37:30.123Z,14.91
2022-10-21T17:40:01.309Z,14.88
2022-10-21T17:42:33.913Z,14.89
2022-10-21T17:45:07.349Z,14.87
2022-10-21T17:47:38.833Z,14.82
2022-10-21T17:50:10.594Z,14.86
2022-10-21T17:52:42.011Z,14.90
2022-10-21T17:55:14.510Z,14.88
2022-10-21T17:57:47.060Z,14.88
2022-10-21T18:00:21.860Z,14.89
2022-10-21T18:02:52.042Z,14.83
2022-10-21T18:05:26.022Z,14.86
2022-10-21T18:07:57.748Z,14.83
2022-10-21T18:10:29.923Z,14.80
2022-10-21T18:13:02.335Z,14.77
2022-10-21T18:15:34.687Z,14.86
2022-10-21T18:18:04.512Z,14.86
2022-10-21T18:20:44.832Z,14.87
2022-10-21T18:23:14.846Z,14.82
2022-10-21T18:25:47.738Z,14.83
2022-10-21T18:28:22.997Z,14.81
2022-10-21T18:30:53.294Z,14.82
2022-10-21T18:33:23.141Z,14.77
2022-10-21T18:36:04.603Z,14.66
2022-10-21T18:38:34.405Z,14.71
2022-10-21T18:41:19.609Z,14.69
2022-10-21T18:43:55.677Z,14.68
2022-10-21T18:46:26.592Z,14.64
2022-10-21T18:48:56.513Z,14.68
2022-10-21T18:51:30.050Z,14.68
2022-10-21T18:54:01.746Z,14.66
2022-10-21T18:56:34.722Z,14.62
2022-10-21T18:59:10.102Z,14.58
2022-10-21T19:01:42.490Z,14.56
2022-10-21T19:04:14.347Z,14.56
2022-10-21T19:06:46.493Z,14.50
2022-10-21T19:09:19.122Z,14.49
2022-10-21T19:11:51.710Z,14.49
2022-10-21T19:14:24.663Z,14.47
2022-10-21T19:16:54.828Z,14.34
2022-10-21T19:19:24.729Z,14.37
2022-10-21T19:21:54.708Z,14.28
2022-10-21T19:24:25.012Z,14.34
2022-10-21T19:26:56.532Z,14.31
2022-10-21T19:29:29.871Z,14.35
2022-10-21T19:32:02.414Z,14.32
2022-10-21T19:34:32.649Z,14.35
2022-10-21T19:37:02.545Z,14.34
2022-10-21T19:39:32.656Z,14.29
2022-10-21T19:42:03.164Z,14.31
2022-10-21T19:44:35.576Z,14.32
2022-10-21T19:47:06.344Z,14.30
2022-10-21T19:49:37.111Z,14.21
2022-10-21T19:52:07.273Z,14.28
2022-10-21T19:54:37.446Z,14.24
2022-10-21T19:57:07.567Z,14.15
2022-10-21T19:59:40.072Z,14.16
2022-10-21T20:02:15.258Z,14.10
2022-10-21T20:04:47.311Z,13.98
2022-10-21T20:07:17.808Z,13.97
2022-10-21T20:09:47.964Z,13.91
2022-10-21T20:12:18.229Z,13.93
2022-10-21T20:14:50.849Z,13.96
2022-10-21T20:17:21.127Z,14.04
2022-10-21T20:19:51.177Z,14.00
2022-10-21T20:22:21.630Z,13.99
2022-10-21T20:24:54.413Z,14.05
2022-10-21T20:27:24.387Z,14.01
2022-10-21T20:29:57.484Z,14.07
2022-10-21T20:32:27.886Z,14.13
2022-10-21T20:34:57.920Z,14.14
2022-10-21T20:37:27.931Z,14.13
2022-10-21T20:39:57.903Z,14.16
2022-10-21T20:42:28.210Z,14.16
2022-10-21T20:45:00.726Z,14.13
2022-10-21T20:47:30.978Z,14.10
2022-10-21T20:50:01.218Z,14.09
2022-10-21T20:52:34.258Z,14.05
2022-10-21T20:55:04.523Z,14.00
2022-10-21T20:57:34.648Z,14.00
2022-10-21T21:00:10.338Z,13.94
2022-10-21T21:02:41.153Z,13.88
2022-10-21T21:05:16.059Z,13.85
2022-10-21T21:07:46.170Z,13.79
2022-10-21T21:10:17.189Z,13.81
2022-10-21T21:12:50.010Z,13.80
2022-10-21T21:15:34.633Z,13.83
2022-10-21T21:18:11.573Z,13.84
2022-10-21T21:20:43.855Z,13.83
2022-10-21T21:23:17.218Z,13.76
2022-10-21T21:25:46.951Z,13.79
2022-10-21T21:28:16.633Z,13.77
2022-10-21T21:30:56.499Z,13.78
2022-10-21T21:33:29.136Z,13.71
2022-10-21T21:35:59.433Z,13.71
2022-10-21T21:38:34.943Z,13.74
2022-10-21T21:41:09.841Z,13.81
2022-10-21T21:43:41.639Z,13.80
2022-10-21T21:46:22.861Z,13.82
2022-10-21T21:48:56.058Z,13.80
2022-10-21T21:51:34.417Z,13.78
2022-10-21T21:54:05.701Z,13.70
2022-10-21T21:56:36.407Z,13.66
2022-10-21T21:59:10.628Z,13.62
2022-10-21T22:01:43.207Z,13.62
2022-10-21T22:04:13.242Z,13.57
2022-10-21T22:06:45.640Z,13.48
2022-10-21T22:09:15.855Z,13.59
2022-10-21T22:11:48.201Z,13.80
2022-10-21T22:14:18.422Z,13.82
2022-10-21T22:16:51.353Z,13.84
2022-10-21T22:19:22.337Z,13.87
2022-10-21T22:21:52.798Z,13.89
2022-10-21T22:24:24.437Z,13.91
2022-10-21T22:26:55.786Z,13.97
2022-10-21T22:29:26.169Z,14.06
2022-10-21T22:31:59.335Z,14.06
2022-10-21T22:34:29.312Z,14.08
2022-10-21T22:36:59.180Z,14.14
2022-10-21T22:39:36.750Z,14.19
2022-10-21T22:42:08.492Z,14.13
2022-10-21T22:44:41.358Z,14.17
2022-10-21T22:47:14.262Z,14.12
2022-10-21T22:49:43.965Z,14.16
2022-10-21T22:52:14.116Z,14.18
2022-10-21T22:54:49.376Z,14.15
2022-10-21T22:57:20.193Z,14.13
2022-10-21T22:59:57.256Z,14.12
2022-10-21T23:02:29.987Z,14.12
2022-10-21T23:05:00.304Z,14.08
2022-10-21T23:07:30.942Z,14.19
2022-10-21T23:10:01.609Z,14.18
2022-10-21T23:12:31.914Z,14.18
2022-10-21T23:15:01.890Z,14.13
2022-10-21T23:17:35.152Z,14.17
2022-10-21T23:20:05.106Z,14.20
2022-10-21T23:22:35.410Z,14.20
2022-10-21T23:25:05.113Z,14.24
2022-10-21T23:27:34.952Z,14.23
2022-10-21T23:30:05.164Z,14.13
2022-10-21T23:32:37.612Z,14.19
2022-10-21T23:35:08.522Z,14.17
2022-10-21T23:37:38.898Z,14.15
2022-10-21T23:40:11.018Z,14.22
2022-10-21T23:42:42.877Z,14.18
2022-10-21T23:45:13.868Z,14.20
2022-10-21T23:47:46.655Z,14.16
2022-10-21T23:50:21.689Z,14.15
2022-10-21T23:52:59.050Z,14.14
2022-10-21T23:58:03.558Z,14.12
